createdAt,value
2017-06-14T00:00:39.588Z,-3.1
2017-06-14T00:01:38.895Z,-3.1
2017-06-14T00:02:38.126Z,-3.1
2017-06-14T00:03:37.353Z,-3.1
2017-06-14T00:04:36.581Z,-3.2
2017-06-14T00:05:35.694Z,-3.1
2017-06-14T00:06:35.320Z,-3.1
2017-06-14T00:07:34.548Z,-3.1
2017-06-14T00:08:33.553Z,-3.1
2017-06-14T00:09:32.819Z,-3.2
2017-06-14T00:10:32.558Z,-3.2
2017-06-14T00:11:31.678Z,-3.2
2017-06-14T00:12:31.954Z,-3.2
2017-06-14T00:13:30.061Z,-3.3
2017-06-14T00:14:29.073Z,-3.3
2017-06-14T00:16:27.698Z,-3.1
2017-06-14T00:17:26.925Z,-3.2
2017-06-14T00:18:26.657Z,-3.3
2017-06-14T00:20:24.667Z,-3.4
2017-06-14T00:21:24.407Z,-3.3
2017-06-14T00:22:23.639Z,-3.4
2017-06-14T00:23:22.876Z,-3.5
2017-06-14T00:24:22.639Z,-3.3
2017-06-14T00:25:21.250Z,-3.4
2017-06-14T00:26:20.254Z,-3.4
2017-06-14T00:27:19.877Z,-3.4
2017-06-14T00:28:18.992Z,-3.5
2017-06-14T00:29:18.220Z,-3.4
2017-06-14T00:30:17.452Z,-3.5
2017-06-14T00:31:16.562Z,-3.5
2017-06-14T00:32:16.301Z,-3.6
2017-06-14T00:33:15.558Z,-3.6
2017-06-14T00:34:14.790Z,-3.6
2017-06-14T00:35:14.028Z,-3.6
2017-06-14T00:36:13.263Z,-3.6
2017-06-14T00:36:43.693Z,-3.6
2017-06-14T00:38:12.186Z,-3.6
2017-06-14T00:39:10.916Z,-3.6
2017-06-14T00:40:10.148Z,-3.7
2017-06-14T00:41:09.961Z,-3.6
2017-06-14T00:42:08.696Z,-3.8
2017-06-14T00:43:07.816Z,-3.7
2017-06-14T00:44:06.807Z,-3.7
2017-06-14T00:46:05.818Z,-3.7
2017-06-14T00:47:05.396Z,-3.7
2017-06-14T00:48:04.010Z,-3.8
2017-06-14T00:49:03.818Z,-3.8
2017-06-14T00:50:02.197Z,-3.7
2017-06-14T00:51:01.853Z,-3.6
2017-06-14T00:52:00.964Z,-3.8
2017-06-14T00:53:00.200Z,-3.8
2017-06-14T00:53:59.427Z,-3.6
2017-06-14T00:54:29.857Z,-3.6
2017-06-14T00:55:01.570Z,-3.6
2017-06-14T00:55:30.605Z,-3.6
2017-06-14T00:56:01.144Z,-3.6
2017-06-14T00:56:57.351Z,-3.6
2017-06-14T00:57:56.348Z,-3.6
2017-06-14T00:58:55.962Z,-3.6
2017-06-14T00:59:55.074Z,-3.6
2017-06-14T01:00:54.074Z,-3.5
2017-06-14T01:01:53.691Z,-3.4
2017-06-14T01:02:52.925Z,-3.4
2017-06-14T01:04:51.114Z,-3.4
2017-06-14T01:05:50.368Z,-3.4
2017-06-14T01:06:49.486Z,-3.5
2017-06-14T01:08:48.104Z,-3.4
2017-06-14T01:09:47.220Z,-3.5
2017-06-14T01:10:46.957Z,-3.5
2017-06-14T01:11:46.188Z,-3.5
2017-06-14T01:12:45.420Z,-3.6
2017-06-14T01:13:44.532Z,-3.6
2017-06-14T01:14:43.644Z,-3.6
2017-06-14T01:15:42.876Z,-3.6
2017-06-14T01:16:42.115Z,-3.6
2017-06-14T01:18:40.493Z,-3.7
2017-06-14T01:19:39.726Z,-3.7
2017-06-14T01:20:38.951Z,-3.8
2017-06-14T01:21:38.064Z,-3.8
2017-06-14T01:22:37.802Z,-3.7
2017-06-14T01:23:37.037Z,-3.7
2017-06-14T01:24:36.274Z,-3.7
2017-06-14T01:25:35.391Z,-3.7
2017-06-14T01:26:34.506Z,-3.7
2017-06-14T01:27:33.745Z,-3.6
2017-06-14T01:28:33.565Z,-3.7
2017-06-14T01:29:32.302Z,-3.7
2017-06-14T01:30:31.530Z,-3.8
2017-06-14T01:31:30.763Z,-3.8
2017-06-14T01:32:29.995Z,-3.7
2017-06-14T01:33:29.116Z,-3.7
2017-06-14T01:34:28.350Z,-3.7
2017-06-14T01:35:27.585Z,-3.7
2017-06-14T01:36:26.701Z,-3.9
2017-06-14T01:37:26.436Z,-3.9
2017-06-14T01:38:25.670Z,-3.9
2017-06-14T01:39:24.899Z,-3.9
2017-06-14T01:40:24.130Z,-3.8
2017-06-14T01:41:23.366Z,-3.8
2017-06-14T01:43:21.486Z,-3.7
2017-06-14T01:44:20.606Z,-3.7
2017-06-14T01:45:20.344Z,-3.6
2017-06-14T01:46:19.576Z,-3.5
2017-06-14T01:47:18.577Z,-3.5
2017-06-14T01:49:17.197Z,-3.5
2017-06-14T01:50:16.311Z,-3.5
2017-06-14T01:51:15.421Z,-3.4
2017-06-14T01:52:14.660Z,-3.4
2017-06-14T01:53:14.174Z,-3.4
2017-06-14T01:54:13.439Z,-3.2
2017-06-14T01:55:12.554Z,-3.3
2017-06-14T01:56:11.794Z,-3.2
2017-06-14T01:57:11.022Z,-3.2
2017-06-14T01:58:10.253Z,-3.1
2017-06-14T01:59:09.486Z,-3.1
2017-06-14T02:00:08.721Z,-3.2
2017-06-14T02:01:07.846Z,-3.2
2017-06-14T02:02:06.958Z,-3.1
2017-06-14T02:03:06.194Z,-3.2
2017-06-14T02:04:05.430Z,-3.2
2017-06-14T02:05:04.434Z,-3.2
2017-06-14T02:06:04.180Z,-3.2
2017-06-14T02:07:03.293Z,-3.1
2017-06-14T02:08:02.532Z,-3.2
2017-06-14T02:09:01.761Z,-3.1
2017-06-14T02:10:00.999Z,-3.1
2017-06-14T02:11:00.109Z,-3.1
2017-06-14T02:11:59.929Z,-3.2
2017-06-14T02:12:58.659Z,-3.1
2017-06-14T02:13:57.779Z,-3.1
2017-06-14T02:14:57.010Z,-3
2017-06-14T02:15:56.236Z,-3
2017-06-14T02:16:55.469Z,-3.1
2017-06-14T02:17:55.082Z,-3.1
2017-06-14T02:18:54.743Z,-3.1
2017-06-14T02:19:53.472Z,-3.1
2017-06-14T02:20:52.705Z,-3.1
2017-06-14T02:21:51.933Z,-3.1
2017-06-14T02:22:50.928Z,-3.1
2017-06-14T02:23:50.043Z,-3.1
2017-06-14T02:24:50.373Z,-3.1
2017-06-14T02:25:48.599Z,-3
2017-06-14T02:26:48.337Z,-3.1
2017-06-14T02:27:47.576Z,-3
2017-06-14T02:28:46.690Z,-3.1
2017-06-14T02:29:45.930Z,-3.1
2017-06-14T02:30:45.506Z,-3.1
2017-06-14T02:31:44.127Z,-3.1
2017-06-14T02:32:43.366Z,-3.2
2017-06-14T02:33:42.895Z,-3.2
2017-06-14T02:34:42.016Z,-3.2
2017-06-14T02:35:41.258Z,-3.3
2017-06-14T02:36:40.258Z,-3.3
2017-06-14T02:37:39.493Z,-3.3
2017-06-14T02:38:38.732Z,-3.3
2017-06-14T02:39:37.966Z,-3.3
2017-06-14T02:40:37.083Z,-3.4
2017-06-14T02:41:36.822Z,-3.4
2017-06-14T02:42:36.058Z,-3.4
2017-06-14T02:43:35.288Z,-3.3
2017-06-14T02:44:34.518Z,-3.3
2017-06-14T02:45:34.332Z,-3.4
2017-06-14T02:46:32.559Z,-3.4
2017-06-14T02:47:31.782Z,-3.4
2017-06-14T02:49:30.401Z,-3.5
2017-06-14T02:50:29.625Z,-3.4
2017-06-14T02:51:28.852Z,-3.4
2017-06-14T02:52:28.072Z,-3.5
2017-06-14T02:53:27.296Z,-3.5
2017-06-14T02:54:26.396Z,-3.4
2017-06-14T02:55:25.629Z,-3.4
2017-06-14T02:56:24.852Z,-3.4
2017-06-14T02:57:24.083Z,-3.4
2017-06-14T02:58:23.301Z,-3.4
2017-06-14T02:59:22.555Z,-3.4
2017-06-14T03:00:21.776Z,-3.5
2017-06-14T03:01:20.877Z,-3.4
2017-06-14T03:02:20.369Z,-3.3
2017-06-14T03:03:19.664Z,-3.3
2017-06-14T03:04:18.763Z,-3.4
2017-06-14T03:05:17.982Z,-3.3
2017-06-14T03:06:17.206Z,-3.4
2017-06-14T03:07:16.301Z,-3.4
2017-06-14T03:08:16.029Z,-3.4
2017-06-14T03:09:15.824Z,-3.5
2017-06-14T03:10:14.059Z,-3.6
2017-06-14T03:11:13.282Z,-3.5
2017-06-14T03:12:12.498Z,-3.5
2017-06-14T03:13:11.712Z,-3.5
2017-06-14T03:14:10.963Z,-3.5
2017-06-14T03:15:10.190Z,-3.5
2017-06-14T03:16:09.292Z,-3.7
2017-06-14T03:17:09.018Z,-3.7
2017-06-14T03:18:08.234Z,-3.7
2017-06-14T03:19:07.338Z,-3.7
2017-06-14T03:20:07.132Z,-3.7
2017-06-14T03:21:05.849Z,-3.6
2017-06-14T03:22:04.839Z,-3.6
2017-06-14T03:23:04.061Z,-3.6
2017-06-14T03:24:03.856Z,-3.6
2017-06-14T03:25:02.454Z,-3.7
2017-06-14T03:26:01.685Z,-3.6
2017-06-14T03:27:00.962Z,-3.6
2017-06-14T03:28:00.234Z,-3.6
2017-06-14T03:28:59.455Z,-3.7
2017-06-14T03:29:58.674Z,-3.7
2017-06-14T03:30:57.896Z,-3.7
2017-06-14T03:31:57.677Z,-3.7
2017-06-14T03:32:56.394Z,-3.7
2017-06-14T03:33:55.616Z,-3.7
2017-06-14T03:34:25.789Z,-3.7
2017-06-14T03:34:56.707Z,-3.7
2017-06-14T03:35:53.914Z,-3.7
2017-06-14T03:36:53.136Z,-3.7
2017-06-14T03:37:52.356Z,-3.7
2017-06-14T03:38:51.767Z,-3.7
2017-06-14T03:39:50.997Z,-3.7
2017-06-14T03:40:50.102Z,-3.5
2017-06-14T03:41:49.332Z,-3.5
2017-06-14T03:42:49.125Z,-3.6
2017-06-14T03:43:47.723Z,-3.6
2017-06-14T03:44:46.942Z,-3.4
2017-06-14T03:45:46.166Z,-3.4
2017-06-14T03:46:45.388Z,-3.5
2017-06-14T03:47:44.611Z,-3.5
2017-06-14T03:48:43.479Z,-3.5
2017-06-14T03:49:43.765Z,-3.5
2017-06-14T03:50:42.368Z,-3.5
2017-06-14T03:51:41.586Z,-3.5
2017-06-14T03:52:40.810Z,-3.5
2017-06-14T03:53:39.915Z,-3.5
2017-06-14T03:54:38.933Z,-3.6
2017-06-14T03:55:38.722Z,-3.5
2017-06-14T03:56:37.324Z,-3.6
2017-06-14T03:57:36.543Z,-3.6
2017-06-14T03:58:35.767Z,-3.6
2017-06-14T03:59:34.984Z,-3.5
2017-06-14T04:00:34.204Z,-3.7
2017-06-14T04:01:33.422Z,-3.6
2017-06-14T04:02:32.648Z,-3.7
2017-06-14T04:03:31.865Z,-3.7
2017-06-14T04:04:31.084Z,-3.7
2017-06-14T04:05:30.312Z,-3.7
2017-06-14T04:06:29.538Z,-3.6
2017-06-14T04:07:28.766Z,-3.7
2017-06-14T04:08:27.750Z,-3.6
2017-06-14T04:09:27.477Z,-3.6
2017-06-14T04:10:26.693Z,-3.5
2017-06-14T04:12:24.808Z,-3.4
2017-06-14T04:13:23.911Z,-3.4
2017-06-14T04:15:22.524Z,-3.3
2017-06-14T04:16:21.750Z,-3.3
2017-06-14T04:17:20.977Z,-3.3
2017-06-14T04:18:20.207Z,-3.3
2017-06-14T04:19:19.431Z,-3.3
2017-06-14T04:20:18.655Z,-3.2
2017-06-14T04:21:17.884Z,-3.2
2017-06-14T04:22:17.101Z,-3.2
2017-06-14T04:23:16.326Z,-3.2
2017-06-14T04:24:15.546Z,-3.2
2017-06-14T04:25:15.344Z,-3.2
2017-06-14T04:26:14.073Z,-3.1
2017-06-14T04:27:13.294Z,-3.2
2017-06-14T04:28:13.092Z,-3.2
2017-06-14T04:29:11.810Z,-3.2
2017-06-14T04:30:10.915Z,-3.2
2017-06-14T04:31:10.140Z,-3.2
2017-06-14T04:32:09.359Z,-3.3
2017-06-14T04:33:08.467Z,-3.4
2017-06-14T04:34:08.159Z,-3.4
2017-06-14T04:35:06.878Z,-3.3
2017-06-14T04:36:05.857Z,-3.4
2017-06-14T04:37:05.599Z,-3.4
2017-06-14T04:38:04.816Z,-3.4
2017-06-14T04:39:04.038Z,-3.5
2017-06-14T04:40:03.141Z,-3.6
2017-06-14T04:41:02.362Z,-3.6
2017-06-14T04:42:01.461Z,-3.6
2017-06-14T04:43:00.621Z,-3.7
2017-06-14T04:44:00.349Z,-3.7
2017-06-14T04:44:59.059Z,-3.6
2017-06-14T04:45:58.105Z,-3.7
2017-06-14T04:47:57.186Z,-3.6
2017-06-14T04:48:56.466Z,-3.6
2017-06-14T04:49:54.950Z,-3.6
2017-06-14T04:50:54.434Z,-3.7
2017-06-14T04:51:53.420Z,-3.7
2017-06-14T04:52:53.140Z,-3.7
2017-06-14T04:53:52.123Z,-3.7
2017-06-14T04:54:51.105Z,-3.7
2017-06-14T04:55:50.826Z,-3.8
2017-06-14T04:56:49.932Z,-3.8
2017-06-14T04:57:49.146Z,-3.8
2017-06-14T04:58:48.943Z,-3.8
2017-06-14T04:59:47.672Z,-3.8
2017-06-14T05:00:46.898Z,-3.9
2017-06-14T05:01:46.115Z,-3.9
2017-06-14T05:02:45.223Z,-3.7
2017-06-14T05:03:44.205Z,-3.7
2017-06-14T05:04:43.699Z,-3.8
2017-06-14T05:05:42.926Z,-3.9
2017-06-14T05:06:42.148Z,-3.9
2017-06-14T05:07:41.246Z,-3.9
2017-06-14T05:08:40.468Z,-3.9
2017-06-14T05:09:39.690Z,-3.9
2017-06-14T05:10:38.910Z,-4
2017-06-14T05:11:38.130Z,-4
2017-06-14T05:12:37.342Z,-4
2017-06-14T05:13:36.561Z,-4.1
2017-06-14T05:14:35.779Z,-4.1
2017-06-14T05:16:34.701Z,-4
2017-06-14T05:17:33.422Z,-3.9
2017-06-14T05:18:32.638Z,-3.7
2017-06-14T05:19:31.863Z,-3.7
2017-06-14T05:20:31.080Z,-3.7
2017-06-14T05:21:30.681Z,-3.6
2017-06-14T05:22:29.907Z,-3.5
2017-06-14T05:23:29.123Z,-3.5
2017-06-14T05:24:28.345Z,-3.5
2017-06-14T05:25:27.335Z,-3.5
2017-06-14T05:26:26.315Z,-3.5
2017-06-14T05:27:25.921Z,-3.5
2017-06-14T05:28:25.143Z,-3.4
2017-06-14T05:29:24.362Z,-3.3
2017-06-14T05:30:23.582Z,-3.3
2017-06-14T05:31:22.690Z,-3.3
2017-06-14T05:32:21.912Z,-3.3
2017-06-14T05:33:21.740Z,-3.4
2017-06-14T05:34:20.339Z,-3.4
2017-06-14T05:35:19.632Z,-3.4
2017-06-14T05:36:18.738Z,-3.4
2017-06-14T05:37:18.463Z,-3.4
2017-06-14T05:38:17.679Z,-3.3
2017-06-14T05:39:16.781Z,-3.2
2017-06-14T05:40:16.006Z,-3.2
2017-06-14T05:41:15.794Z,-3.2
2017-06-14T05:42:14.442Z,-3.3
2017-06-14T05:43:13.664Z,-3.3
2017-06-14T05:44:12.881Z,-3.3
2017-06-14T05:45:12.667Z,-3.2
2017-06-14T05:46:11.265Z,-3.2
2017-06-14T05:47:11.078Z,-3.1
2017-06-14T05:48:09.551Z,-3.2
2017-06-14T05:49:09.279Z,-3.1
2017-06-14T05:50:08.383Z,-3.1
2017-06-14T05:51:07.607Z,-3.2
2017-06-14T05:52:06.711Z,-3.2
2017-06-14T05:53:05.993Z,-3.2
2017-06-14T05:54:05.041Z,-3.2
2017-06-14T05:55:05.908Z,-3.1
2017-06-14T05:56:03.611Z,-3.1
2017-06-14T05:57:02.838Z,-3.2
2017-06-14T05:58:02.062Z,-3.2
2017-06-14T05:59:02.127Z,-3.1
2017-06-14T06:00:00.806Z,-3
2017-06-14T06:01:00.028Z,-3
2017-06-14T06:01:59.137Z,-3.1
2017-06-14T06:02:58.236Z,-3.1
2017-06-14T06:03:57.964Z,-3.1
2017-06-14T06:04:57.063Z,-3.1
2017-06-14T06:05:56.161Z,-3.2
2017-06-14T06:07:55.342Z,-3.1
2017-06-14T06:08:54.061Z,-3.1
2017-06-14T06:09:53.280Z,-3
2017-06-14T06:10:52.448Z,-2.9
2017-06-14T06:11:51.671Z,-3
2017-06-14T06:12:50.888Z,-3
2017-06-14T06:13:50.108Z,-3
2017-06-14T06:14:49.895Z,-3
2017-06-14T06:15:48.621Z,-3
2017-06-14T06:16:47.726Z,-3
2017-06-14T06:17:47.448Z,-3
2017-06-14T06:18:47.118Z,-3.1
2017-06-14T06:19:45.840Z,-3.2
2017-06-14T06:20:45.057Z,-3.2
2017-06-14T06:21:44.276Z,-3.2
2017-06-14T06:22:43.499Z,-3.2
2017-06-14T06:23:42.602Z,-3.1
2017-06-14T06:24:42.338Z,-3.1
2017-06-14T06:25:41.216Z,-3.1
2017-06-14T06:26:40.431Z,-3.1
2017-06-14T06:27:40.041Z,-3.2
2017-06-14T06:28:39.262Z,-3.2
2017-06-14T06:29:38.484Z,-3.2
2017-06-14T06:30:09.582Z,-3.2
2017-06-14T06:30:39.611Z,-3
2017-06-14T06:31:10.576Z,-3
2017-06-14T06:32:35.974Z,-3.1
2017-06-14T06:33:35.224Z,-3
2017-06-14T06:34:34.437Z,-3
2017-06-14T06:35:34.736Z,-3.1
2017-06-14T06:36:33.451Z,-3.2
2017-06-14T06:37:32.675Z,-3.1
2017-06-14T06:38:32.342Z,-3.1
2017-06-14T06:39:31.626Z,-3
2017-06-14T06:40:30.346Z,-3
2017-06-14T06:41:30.150Z,-3.1
2017-06-14T06:42:28.865Z,-3.1
2017-06-14T06:43:28.086Z,-3
2017-06-14T06:44:27.303Z,-3.1
2017-06-14T06:45:26.519Z,-3.1
2017-06-14T06:46:25.743Z,-3.2
2017-06-14T06:47:24.969Z,-3.2
2017-06-14T06:48:24.194Z,-3.1
2017-06-14T06:49:23.301Z,-3.1
2017-06-14T06:50:22.797Z,-3.2
2017-06-14T06:51:22.021Z,-3.2
2017-06-14T06:52:21.243Z,-3.1
2017-06-14T06:53:20.852Z,-3.2
2017-06-14T06:54:20.080Z,-3.3
2017-06-14T06:55:19.309Z,-3.2
2017-06-14T06:56:18.416Z,-3.2
2017-06-14T06:57:17.639Z,-3.2
2017-06-14T06:58:16.751Z,-3.2
2017-06-14T06:59:16.481Z,-3.3
2017-06-14T07:00:15.753Z,-3.2
2017-06-14T07:01:15.025Z,-3.3
2017-06-14T07:02:14.131Z,-3.3
2017-06-14T07:03:13.347Z,-3.3
2017-06-14T07:04:13.130Z,-3.3
2017-06-14T07:05:11.732Z,-3.2
2017-06-14T07:06:11.461Z,-3.2
2017-06-14T07:07:10.689Z,-3.1
2017-06-14T07:09:09.126Z,-3.2
2017-06-14T07:10:08.351Z,-3.1
2017-06-14T07:11:07.573Z,-3.1
2017-06-14T07:12:07.115Z,-3
2017-06-14T07:13:06.219Z,-3
2017-06-14T07:14:05.270Z,-3
2017-06-14T07:15:04.994Z,-3
2017-06-14T07:16:04.099Z,-3.1
2017-06-14T07:17:03.384Z,-3.1
2017-06-14T07:18:02.650Z,-3
2017-06-14T07:19:01.871Z,-3.1
2017-06-14T07:20:01.089Z,-3.1
2017-06-14T07:21:00.198Z,-3
2017-06-14T07:22:58.807Z,-3.1
2017-06-14T07:23:58.531Z,-3
2017-06-14T07:24:57.635Z,-3.1
2017-06-14T07:25:56.771Z,-3.1
2017-06-14T07:26:56.380Z,-3.1
2017-06-14T07:27:56.075Z,-3.2
2017-06-14T07:28:54.676Z,-3.2
2017-06-14T07:29:53.897Z,-3.2
2017-06-14T07:30:52.889Z,-3.1
2017-06-14T07:31:52.492Z,-3.1
2017-06-14T07:32:51.718Z,-3.2
2017-06-14T07:33:50.817Z,-3.2
2017-06-14T07:34:50.302Z,-3.1
2017-06-14T07:35:49.528Z,-3.2
2017-06-14T07:36:48.757Z,-3.1
2017-06-14T07:37:48.478Z,-3.2
2017-06-14T07:38:47.576Z,-3.1
2017-06-14T07:39:47.376Z,-3.2
2017-06-14T07:40:45.972Z,-3.2
2017-06-14T07:41:16.509Z,-3.2
2017-06-14T07:41:46.923Z,-3.3
2017-06-14T07:42:44.637Z,-3.3
2017-06-14T07:43:43.858Z,-3.2
2017-06-14T07:44:43.085Z,-3.2
2017-06-14T07:45:42.686Z,-3.3
2017-06-14T07:46:41.907Z,-3.3
2017-06-14T07:48:40.402Z,-3.4
2017-06-14T07:49:39.625Z,-3.4
2017-06-14T07:50:38.846Z,-3.4
2017-06-14T07:51:38.576Z,-3.4
2017-06-14T07:52:37.797Z,-3.4
2017-06-14T07:53:37.022Z,-3.4
2017-06-14T07:54:36.813Z,-3.3
2017-06-14T07:55:35.528Z,-3.4
2017-06-14T07:56:34.631Z,-3.4
2017-06-14T07:57:34.351Z,-3.4
2017-06-14T07:58:33.461Z,-3.4
2017-06-14T07:59:32.679Z,-3.3
2017-06-14T08:00:32.403Z,-3.3
2017-06-14T08:01:31.118Z,-3.3
2017-06-14T08:02:30.838Z,-3.3
2017-06-14T08:03:29.825Z,-3.2
2017-06-14T08:04:30.011Z,-3
2017-06-14T08:05:28.723Z,-3.1
2017-06-14T08:06:27.953Z,-3
2017-06-14T08:07:27.176Z,-3
2017-06-14T08:08:26.401Z,-3
2017-06-14T08:09:25.618Z,-3.2
2017-06-14T08:10:24.602Z,-3.3
2017-06-14T08:11:24.337Z,-3.2
2017-06-14T08:12:23.562Z,-3.4
2017-06-14T08:13:22.669Z,-3.4
2017-06-14T08:14:22.398Z,-3.4
2017-06-14T08:15:21.616Z,-3.3
2017-06-14T08:16:20.842Z,-3.3
2017-06-14T08:17:20.071Z,-3.2
2017-06-14T08:18:19.292Z,-3.2
2017-06-14T08:19:19.099Z,-3.2
2017-06-14T08:20:17.815Z,-3.2
2017-06-14T08:21:17.430Z,-3.1
2017-06-14T08:22:16.536Z,-3.1
2017-06-14T08:23:15.759Z,-3.2
2017-06-14T08:24:15.494Z,-3.2
2017-06-14T08:25:14.725Z,-3.2
2017-06-14T08:26:14.061Z,-3.2
2017-06-14T08:27:13.283Z,-3.1
2017-06-14T08:28:12.389Z,-3.1
2017-06-14T08:29:11.604Z,-3.1
2017-06-14T08:30:10.989Z,-3.2
2017-06-14T08:31:10.096Z,-3.2
2017-06-14T08:32:09.823Z,-3.2
2017-06-14T08:33:08.927Z,-3.2
2017-06-14T08:34:08.148Z,-3.2
2017-06-14T08:35:07.791Z,-3.1
2017-06-14T08:36:06.894Z,-3
2017-06-14T08:37:06.115Z,-3
2017-06-14T08:38:05.216Z,-2.9
2017-06-14T08:39:04.939Z,-3.1
2017-06-14T08:40:03.931Z,-3
2017-06-14T08:41:03.665Z,-2.9
2017-06-14T08:42:02.886Z,-2.9
2017-06-14T08:43:01.989Z,-3
2017-06-14T08:44:01.085Z,-2.9
2017-06-14T08:45:00.809Z,-2.8
2017-06-14T08:46:00.359Z,-2.8
2017-06-14T08:46:31.005Z,-2.8
2017-06-14T08:47:00.913Z,-3
2017-06-14T08:47:31.324Z,-3
2017-06-14T08:48:02.313Z,-3
2017-06-14T08:48:32.802Z,-3
2017-06-14T08:49:02.830Z,-2.9
2017-06-14T08:49:33.127Z,-2.9
2017-06-14T08:50:03.304Z,-3
2017-06-14T08:50:57.057Z,-3
2017-06-14T08:51:55.720Z,-2.9
2017-06-14T08:52:55.448Z,-2.9
2017-06-14T08:53:54.552Z,-2.9
2017-06-14T08:54:53.653Z,-2.9
2017-06-14T08:55:53.382Z,-3
2017-06-14T08:56:52.485Z,-3.1
2017-06-14T08:57:51.597Z,-3.3
2017-06-14T08:58:51.085Z,-3.2
2017-06-14T08:59:50.185Z,-3.2
2017-06-14T09:00:49.801Z,-3.2
2017-06-14T09:01:49.025Z,-3.1
2017-06-14T09:02:48.751Z,-3.2
2017-06-14T09:03:47.967Z,-3.2
2017-06-14T09:04:46.956Z,-3.2
2017-06-14T09:05:47.249Z,-3.3
2017-06-14T09:06:45.970Z,-3.4
2017-06-14T09:07:45.637Z,-3.3
2017-06-14T09:08:44.240Z,-3.4
2017-06-14T09:09:43.972Z,-3.3
2017-06-14T09:10:43.195Z,-3.3
2017-06-14T09:11:42.416Z,-3.3
2017-06-14T09:12:41.516Z,-3.2
2017-06-14T09:13:41.242Z,-3.1
2017-06-14T09:15:39.851Z,-3.1
2017-06-14T09:16:39.585Z,-3.2
2017-06-14T09:17:38.303Z,-3.1
2017-06-14T09:18:37.523Z,-3.2
2017-06-14T09:19:37.131Z,-3.3
2017-06-14T09:20:36.114Z,-3.3
2017-06-14T09:21:35.725Z,-3.3
2017-06-14T09:22:34.949Z,-3.4
2017-06-14T09:23:34.175Z,-3.3
2017-06-14T09:24:33.895Z,-3.3
2017-06-14T09:25:33.123Z,-3.4
2017-06-14T09:26:32.345Z,-3.3
2017-06-14T09:27:31.582Z,-3
2017-06-14T09:28:30.812Z,-2.9
2017-06-14T09:29:30.548Z,-2.9
2017-06-14T09:30:29.774Z,-2.7
2017-06-14T09:31:28.878Z,-2.7
2017-06-14T09:32:28.606Z,-2.7
2017-06-14T09:33:27.837Z,-2.6
2017-06-14T09:34:27.062Z,-2.6
2017-06-14T09:35:26.283Z,-2.5
2017-06-14T09:36:25.150Z,-2.6
2017-06-14T09:37:24.874Z,-2.6
2017-06-14T09:38:24.482Z,-2.7
2017-06-14T09:39:23.699Z,-2.8
2017-06-14T09:40:22.452Z,-2.8
2017-06-14T09:41:22.068Z,-2.9
2017-06-14T09:43:21.185Z,-2.8
2017-06-14T09:44:20.414Z,-2.8
2017-06-14T09:45:19.635Z,-2.7
2017-06-14T09:46:19.956Z,-2.7
2017-06-14T09:47:18.675Z,-2.6
2017-06-14T09:48:17.895Z,-2.6
2017-06-14T09:49:17.692Z,-2.6
2017-06-14T09:50:16.413Z,-2.8
2017-06-14T09:51:15.640Z,-2.8
2017-06-14T09:52:15.362Z,-2.7
2017-06-14T09:53:14.473Z,-2.7
2017-06-14T09:54:13.689Z,-2.7
2017-06-14T09:55:13.297Z,-2.7
2017-06-14T09:56:12.524Z,-2.8
2017-06-14T09:57:11.623Z,-2.9
2017-06-14T09:58:10.993Z,-3
2017-06-14T09:59:11.273Z,-3
2017-06-14T10:00:09.877Z,-3
2017-06-14T10:01:09.104Z,-3
2017-06-14T10:02:08.589Z,-3
2017-06-14T10:03:08.657Z,-2.9
2017-06-14T10:04:07.131Z,-3
2017-06-14T10:05:06.734Z,-2.8
2017-06-14T10:06:05.877Z,-2.8
2017-06-14T10:07:05.596Z,-2.8
2017-06-14T10:08:05.383Z,-2.8
2017-06-14T10:09:03.981Z,-3.1
2017-06-14T10:10:03.709Z,-3.1
2017-06-14T10:11:02.934Z,-3.1
2017-06-14T10:12:02.041Z,-3
2017-06-14T10:14:00.646Z,-2.9
2017-06-14T10:15:00.372Z,-2.8
2017-06-14T10:15:59.591Z,-2.8
2017-06-14T10:16:58.810Z,-2.7
2017-06-14T10:17:58.541Z,-2.7
2017-06-14T10:18:57.776Z,-2.8
2017-06-14T10:19:56.885Z,-2.9
2017-06-14T10:20:57.057Z,-2.9
2017-06-14T10:21:55.768Z,-2.9
2017-06-14T10:22:54.996Z,-3
2017-06-14T10:23:54.722Z,-2.7
2017-06-14T10:24:53.940Z,-2.7
2017-06-14T10:25:53.038Z,-2.6
2017-06-14T10:26:53.347Z,-2.6
2017-06-14T10:27:52.064Z,-2.6
2017-06-14T10:28:51.758Z,-2.5
2017-06-14T10:29:50.481Z,-2.5
2017-06-14T10:30:50.214Z,-2.5
2017-06-14T10:31:49.438Z,-2.4
2017-06-14T10:32:48.420Z,-2.4
2017-06-14T10:33:47.907Z,-2.5
2017-06-14T10:34:47.636Z,-2.5
2017-06-14T10:35:46.740Z,-2.5
2017-06-14T10:36:46.341Z,-2.5
2017-06-14T10:37:45.458Z,-2.4
2017-06-14T10:38:44.566Z,-2.4
2017-06-14T10:40:43.688Z,-2.4
2017-06-14T10:41:43.491Z,-2.3
2017-06-14T10:42:42.207Z,-2.3
2017-06-14T10:43:41.931Z,-2.3
2017-06-14T10:44:41.148Z,-2.2
2017-06-14T10:45:40.252Z,-2.3
2017-06-14T10:46:39.972Z,-2.3
2017-06-14T10:47:39.076Z,-2.2
2017-06-14T10:48:38.800Z,-2.2
2017-06-14T10:49:37.897Z,-2.2
2017-06-14T10:50:37.501Z,-2.1
2017-06-14T10:51:36.489Z,-2.1
2017-06-14T10:52:36.207Z,-2.2
2017-06-14T10:53:35.426Z,-2.2
2017-06-14T10:54:34.645Z,-2.1
2017-06-14T10:55:35.393Z,-2
2017-06-14T10:56:33.612Z,-2.1
2017-06-14T10:57:33.416Z,-2
2017-06-14T10:58:32.634Z,-2
2017-06-14T10:59:31.856Z,-2
2017-06-14T11:00:31.082Z,-1.9
2017-06-14T11:01:30.303Z,-2
2017-06-14T11:02:30.028Z,-1.9
2017-06-14T11:03:29.248Z,-1.7
2017-06-14T11:04:28.473Z,-1.8
2017-06-14T11:05:28.205Z,-1.6
2017-06-14T11:06:27.426Z,-1.6
2017-06-14T11:07:26.529Z,-1.7
2017-06-14T11:08:26.260Z,-1.7
2017-06-14T11:09:25.480Z,-1.6
2017-06-14T11:10:24.676Z,-1.5
2017-06-14T11:11:24.976Z,-1.4
2017-06-14T11:12:23.458Z,-1.4
2017-06-14T11:13:23.201Z,-1.4
2017-06-14T11:14:22.416Z,-1.2
2017-06-14T11:15:22.136Z,-1
2017-06-14T11:16:21.239Z,-0.7
2017-06-14T11:17:20.965Z,-0.5
2017-06-14T11:18:19.953Z,-0.5
2017-06-14T11:19:19.675Z,-0.8
2017-06-14T11:20:18.547Z,-0.8
2017-06-14T11:21:18.155Z,-0.7
2017-06-14T11:22:17.875Z,-0.6
2017-06-14T11:23:17.177Z,-0.7
2017-06-14T11:24:16.401Z,-0.6
2017-06-14T11:25:16.009Z,-0.3
2017-06-14T11:26:15.244Z,-0.2
2017-06-14T11:27:14.492Z,0
2017-06-14T11:28:14.222Z,0
2017-06-14T11:29:13.331Z,0.2
2017-06-14T11:30:12.934Z,0.2
2017-06-14T11:31:12.150Z,0.3
2017-06-14T11:32:11.518Z,0.4
2017-06-14T11:33:11.242Z,-0.1
2017-06-14T11:35:09.853Z,0.2
2017-06-14T11:36:08.837Z,0.4
2017-06-14T11:37:08.560Z,0.5
2017-06-14T11:38:08.279Z,0.4
2017-06-14T11:39:07.497Z,0.4
2017-06-14T11:40:06.604Z,0.3
2017-06-14T11:41:06.327Z,0.1
2017-06-14T11:42:05.311Z,0.4
2017-06-14T11:43:05.423Z,0.1
2017-06-14T11:44:04.413Z,0.1
2017-06-14T11:45:03.905Z,0.3
2017-06-14T11:46:03.631Z,0.5
2017-06-14T11:47:02.617Z,0.3
2017-06-14T11:48:02.223Z,0.4
2017-06-14T11:50:01.095Z,0.6
2017-06-14T11:51:00.326Z,0.5
2017-06-14T11:52:01.047Z,0.5
2017-06-14T11:52:59.259Z,0.5
2017-06-14T11:53:58.859Z,0.5
2017-06-14T11:54:58.075Z,0.7
2017-06-14T11:55:28.605Z,0.7
2017-06-14T11:55:59.141Z,0.9
2017-06-14T11:56:56.847Z,0.7
2017-06-14T11:57:57.161Z,0.8
2017-06-14T11:58:55.884Z,1
2017-06-14T11:59:55.494Z,0.4
2017-06-14T12:00:54.720Z,0.2
2017-06-14T12:01:54.328Z,0.3
2017-06-14T12:02:54.004Z,0.5
2017-06-14T12:03:53.105Z,0.4
2017-06-14T12:04:52.336Z,0.3
2017-06-14T12:05:51.703Z,0.5
2017-06-14T12:06:51.429Z,0.8
2017-06-14T12:08:49.923Z,0.8
2017-06-14T12:09:50.212Z,1
2017-06-14T12:10:49.316Z,1
2017-06-14T12:11:48.478Z,1.2
2017-06-14T12:13:47.498Z,0.9
2017-06-14T12:14:46.479Z,1.2
2017-06-14T12:15:46.202Z,0.8
2017-06-14T12:16:45.961Z,1
2017-06-14T12:17:45.182Z,0.9
2017-06-14T12:18:44.408Z,0.6
2017-06-14T12:20:43.410Z,1
2017-06-14T12:21:43.027Z,1.2
2017-06-14T12:22:42.530Z,1.3
2017-06-14T12:23:41.750Z,1.3
2017-06-14T12:24:41.355Z,1.3
2017-06-14T12:25:40.455Z,1.1
2017-06-14T12:26:40.179Z,1
2017-06-14T12:27:39.399Z,1.4
2017-06-14T12:28:39.010Z,1.5
2017-06-14T12:29:38.609Z,1.7
2017-06-14T12:30:37.832Z,1.6
2017-06-14T12:31:37.560Z,1.7
2017-06-14T12:32:36.670Z,1.7
2017-06-14T12:33:36.402Z,2
2017-06-14T12:34:35.508Z,2
2017-06-14T12:35:35.226Z,2.2
2017-06-14T12:36:34.950Z,2.3
2017-06-14T12:37:34.733Z,1.5
2017-06-14T12:38:05.331Z,1.5
2017-06-14T12:38:35.355Z,1.6
2017-06-14T12:39:07.028Z,1.6
2017-06-14T12:39:36.440Z,1.4
2017-06-14T12:40:32.642Z,1.4
2017-06-14T12:41:31.785Z,1.6
2017-06-14T12:42:31.464Z,1.9
2017-06-14T12:43:30.961Z,2
2017-06-14T12:44:30.185Z,1.8
2017-06-14T12:45:29.795Z,1.9
2017-06-14T12:47:28.790Z,2.4
2017-06-14T12:48:28.398Z,2.7
2017-06-14T12:49:27.501Z,2.8
2017-06-14T12:50:27.109Z,2.9
2017-06-14T12:51:26.716Z,2.6
2017-06-14T12:52:25.935Z,2.4
2017-06-14T12:54:25.629Z,2.3
2017-06-14T12:55:24.728Z,2
2017-06-14T12:56:23.833Z,2.1
2017-06-14T12:57:23.558Z,2.3
2017-06-14T12:58:22.659Z,2.2
2017-06-14T12:59:22.375Z,2.4
2017-06-14T13:00:22.108Z,2.5
2017-06-14T13:01:21.326Z,2.2
2017-06-14T13:02:21.066Z,2.2
2017-06-14T13:03:20.297Z,2.2
2017-06-14T13:04:19.906Z,2.4
2017-06-14T13:05:19.695Z,2.5
2017-06-14T13:06:19.493Z,2.5
2017-06-14T13:07:18.211Z,2.7
2017-06-14T13:08:17.937Z,2.7
2017-06-14T13:09:17.156Z,2.3
2017-06-14T13:10:16.884Z,2.1
2017-06-14T13:11:16.123Z,2
2017-06-14T13:12:15.730Z,1.8
2017-06-14T13:13:14.850Z,1.9
2017-06-14T13:14:14.592Z,1.8
2017-06-14T13:15:14.787Z,2.1
2017-06-14T13:16:13.509Z,2.1
2017-06-14T13:17:13.238Z,2
2017-06-14T13:18:12.459Z,2.1
2017-06-14T13:19:12.188Z,2.2
2017-06-14T13:20:11.424Z,2.3
2017-06-14T13:21:11.150Z,2.3
2017-06-14T13:22:10.374Z,2.5
2017-06-14T13:23:10.107Z,2.6
2017-06-14T13:24:09.330Z,2.6
2017-06-14T13:25:09.092Z,2.8
2017-06-14T13:26:08.315Z,2.9
2017-06-14T13:27:07.920Z,2.8
2017-06-14T13:28:07.589Z,3.1
2017-06-14T13:29:06.455Z,3.2
2017-06-14T13:30:06.068Z,3.6
2017-06-14T13:31:05.794Z,3.6
2017-06-14T13:32:05.982Z,3.7
2017-06-14T13:33:04.705Z,3.7
2017-06-14T13:34:04.076Z,3.6